sensor_id;sensor_type;location;lat;lon;timestamp;P1;durP1;ratioP1;P2;durP2;ratioP2
35304;SDS011;26433;48.034;-1.764;2022-07-23T00:02:24;1.12;;;0.30;;
35304;SDS011;26433;48.034;-1.764;2022-07-23T00:07:28;1.35;;;0.70;;
35304;SDS011;26433;48.034;-1.764;2022-07-23T00:12:32;4.67;;;0.50;;
35304;SDS011;26433;48.034;-1.764;2022-07-23T00:17:37;0.70;;;0.57;;
35304;SDS011;26433;48.034;-1.764;2022-07-23T00:22:45;1.75;;;0.60;;
35304;SDS011;26433;48.034;-1.764;2022-07-23T00:27:49;1.08;;;0.70;;
35304;SDS011;26433;48.034;-1.764;2022-07-23T00:32:55;1.45;;;0.60;;
35304;SDS011;26433;48.034;-1.764;2022-07-23T00:38:01;2.65;;;0.55;;
35304;SDS011;26433;48.034;-1.764;2022-07-23T00:43:06;3.30;;;0.50;;
35304;SDS011;26433;48.034;-1.764;2022-07-23T00:48:12;0.93;;;0.70;;
35304;SDS011;26433;48.034;-1.764;2022-07-23T00:53:15;0.73;;;0.57;;
35304;SDS011;26433;48.034;-1.764;2022-07-23T00:58:19;0.47;;;0.47;;
35304;SDS011;26433;48.034;-1.764;2022-07-23T01:03:24;1.15;;;0.45;;
35304;SDS011;26433;48.034;-1.764;2022-07-23T01:08:28;1.10;;;0.80;;
35304;SDS011;26433;48.034;-1.764;2022-07-23T01:13:32;7.90;;;0.73;;
35304;SDS011;26433;48.034;-1.764;2022-07-23T01:18:37;1.20;;;0.83;;
35304;SDS011;26433;48.034;-1.764;2022-07-23T01:23:42;0.80;;;0.68;;
35304;SDS011;26433;48.034;-1.764;2022-07-23T01:28:46;0.30;;;0.30;;
35304;SDS011;26433;48.034;-1.764;2022-07-23T01:33:50;2.03;;;0.80;;
35304;SDS011;26433;48.034;-1.764;2022-07-23T01:38:55;1.25;;;0.57;;
35304;SDS011;26433;48.034;-1.764;2022-07-23T01:44:00;1.65;;;0.68;;
35304;SDS011;26433;48.034;-1.764;2022-07-23T01:49:04;3.15;;;0.77;;
35304;SDS011;26433;48.034;-1.764;2022-07-23T01:54:10;1.62;;;0.90;;
35304;SDS011;26433;48.034;-1.764;2022-07-23T01:59:14;2.92;;;0.80;;
35304;SDS011;26433;48.034;-1.764;2022-07-23T02:04:18;1.07;;;0.70;;
35304;SDS011;26433;48.034;-1.764;2022-07-23T02:09:24;1.80;;;0.50;;
35304;SDS011;26433;48.034;-1.764;2022-07-23T02:14:27;2.05;;;0.75;;
35304;SDS011;26433;48.034;-1.764;2022-07-23T02:19:31;2.58;;;0.70;;
35304;SDS011;26433;48.034;-1.764;2022-07-23T02:24:37;2.85;;;0.82;;
35304;SDS011;26433;48.034;-1.764;2022-07-23T02:29:40;3.83;;;0.75;;
35304;SDS011;26433;48.034;-1.764;2022-07-23T02:34:44;2.53;;;0.60;;
35304;SDS011;26433;48.034;-1.764;2022-07-23T02:39:49;1.47;;;0.77;;
35304;SDS011;26433;48.034;-1.764;2022-07-23T02:44:53;1.10;;;0.65;;
35304;SDS011;26433;48.034;-1.764;2022-07-23T02:49:57;1.17;;;0.70;;
35304;SDS011;26433;48.034;-1.764;2022-07-23T02:55:04;0.68;;;0.68;;
35304;SDS011;26433;48.034;-1.764;2022-07-23T03:00:09;1.42;;;1.00;;
35304;SDS011;26433;48.034;-1.764;2022-07-23T03:05:13;2.22;;;0.88;;
35304;SDS011;26433;48.034;-1.764;2022-07-23T03:10:19;1.90;;;0.43;;
35304;SDS011;26433;48.034;-1.764;2022-07-23T03:15:22;1.70;;;0.85;;
35304;SDS011;26433;48.034;-1.764;2022-07-23T03:20:26;1.35;;;0.68;;
35304;SDS011;26433;48.034;-1.764;2022-07-23T03:25:31;2.43;;;1.00;;
35304;SDS011;26433;48.034;-1.764;2022-07-23T03:30:35;1.05;;;0.80;;
35304;SDS011;26433;48.034;-1.764;2022-07-23T03:35:39;1.13;;;0.80;;
35304;SDS011;26433;48.034;-1.764;2022-07-23T03:40:46;0.90;;;0.70;;
35304;SDS011;26433;48.034;-1.764;2022-07-23T03:45:50;1.27;;;0.60;;
35304;SDS011;26433;48.034;-1.764;2022-07-23T03:50:53;1.03;;;0.73;;
35304;SDS011;26433;48.034;-1.764;2022-07-23T03:55:59;1.53;;;0.70;;
35304;SDS011;26433;48.034;-1.764;2022-07-23T04:01:04;1.42;;;0.80;;
35304;SDS011;26433;48.034;-1.764;2022-07-23T04:06:08;1.30;;;0.82;;
35304;SDS011;26433;48.034;-1.764;2022-07-23T04:11:13;1.77;;;0.97;;
35304;SDS011;26433;48.034;-1.764;2022-07-23T04:16:17;1.52;;;0.77;;
35304;SDS011;26433;48.034;-1.764;2022-07-23T04:21:21;1.50;;;0.80;;
35304;SDS011;26433;48.034;-1.764;2022-07-23T04:26:26;1.23;;;0.95;;
35304;SDS011;26433;48.034;-1.764;2022-07-23T04:31:30;1.87;;;0.82;;
35304;SDS011;26433;48.034;-1.764;2022-07-23T04:36:39;0.70;;;0.70;;
35304;SDS011;26433;48.034;-1.764;2022-07-23T04:41:44;1.20;;;0.90;;
35304;SDS011;26433;48.034;-1.764;2022-07-23T04:46:48;1.85;;;0.80;;
35304;SDS011;26433;48.034;-1.764;2022-07-23T04:51:53;1.17;;;0.80;;
35304;SDS011;26433;48.034;-1.764;2022-07-23T04:56:59;2.53;;;0.98;;
35304;SDS011;26433;48.034;-1.764;2022-07-23T05:02:03;2.75;;;0.73;;
35304;SDS011;26433;48.034;-1.764;2022-07-23T05:07:07;0.57;;;0.57;;
35304;SDS011;26433;48.034;-1.764;2022-07-23T05:12:12;2.57;;;0.90;;
35304;SDS011;26433;48.034;-1.764;2022-07-23T05:17:16;4.18;;;0.70;;
35304;SDS011;26433;48.034;-1.764;2022-07-23T05:22:20;2.60;;;0.80;;
35304;SDS011;26433;48.034;-1.764;2022-07-23T05:27:25;0.55;;;0.55;;
35304;SDS011;26433;48.034;-1.764;2022-07-23T05:32:30;2.92;;;0.73;;
35304;SDS011;26433;48.034;-1.764;2022-07-23T05:37:36;5.18;;;0.88;;
35304;SDS011;26433;48.034;-1.764;2022-07-23T05:42:41;1.83;;;1.00;;
35304;SDS011;26433;48.034;-1.764;2022-07-23T05:47:46;6.35;;;0.80;;
35304;SDS011;26433;48.034;-1.764;2022-07-23T05:52:52;3.92;;;1.10;;
35304;SDS011;26433;48.034;-1.764;2022-07-23T05:58:03;0.60;;;0.60;;
35304;SDS011;26433;48.034;-1.764;2022-07-23T06:03:08;0.95;;;0.90;;
35304;SDS011;26433;48.034;-1.764;2022-07-23T06:08:11;4.00;;;0.82;;
35304;SDS011;26433;48.034;-1.764;2022-07-23T06:23:25;1.42;;;0.62;;
35304;SDS011;26433;48.034;-1.764;2022-07-23T06:28:30;1.00;;;0.80;;
35304;SDS011;26433;48.034;-1.764;2022-07-23T06:33:34;4.50;;;0.57;;
35304;SDS011;26433;48.034;-1.764;2022-07-23T06:38:37;0.87;;;0.63;;
35304;SDS011;26433;48.034;-1.764;2022-07-23T06:43:42;0.77;;;0.60;;
35304;SDS011;26433;48.034;-1.764;2022-07-23T06:48:47;1.50;;;0.60;;
35304;SDS011;26433;48.034;-1.764;2022-07-23T06:53:51;2.60;;;0.90;;
35304;SDS011;26433;48.034;-1.764;2022-07-23T06:58:56;3.10;;;0.77;;
35304;SDS011;26433;48.034;-1.764;2022-07-23T07:04:01;0.90;;;0.75;;
35304;SDS011;26433;48.034;-1.764;2022-07-23T07:09:04;1.30;;;0.53;;
35304;SDS011;26433;48.034;-1.764;2022-07-23T07:14:09;0.60;;;0.40;;
35304;SDS011;26433;48.034;-1.764;2022-07-23T07:19:13;4.22;;;0.60;;
35304;SDS011;26433;48.034;-1.764;2022-07-23T07:24:17;1.73;;;0.50;;
35304;SDS011;26433;48.034;-1.764;2022-07-23T07:29:22;0.70;;;0.50;;
35304;SDS011;26433;48.034;-1.764;2022-07-23T07:34:26;5.97;;;0.73;;
35304;SDS011;26433;48.034;-1.764;2022-07-23T07:39:31;0.70;;;0.60;;
35304;SDS011;26433;48.034;-1.764;2022-07-23T07:44:35;2.83;;;0.60;;
35304;SDS011;26433;48.034;-1.764;2022-07-23T07:49:39;0.95;;;0.50;;
35304;SDS011;26433;48.034;-1.764;2022-07-23T07:54:43;0.52;;;0.30;;
35304;SDS011;26433;48.034;-1.764;2022-07-23T07:59:49;0.43;;;0.43;;
35304;SDS011;26433;48.034;-1.764;2022-07-23T08:04:57;1.40;;;0.45;;
35304;SDS011;26433;48.034;-1.764;2022-07-23T08:10:01;0.63;;;0.53;;
35304;SDS011;26433;48.034;-1.764;2022-07-23T08:15:07;0.20;;;0.20;;
35304;SDS011;26433;48.034;-1.764;2022-07-23T08:20:15;0.75;;;0.60;;
35304;SDS011;26433;48.034;-1.764;2022-07-23T08:25:22;0.80;;;0.45;;
35304;SDS011;26433;48.034;-1.764;2022-07-23T08:30:28;0.55;;;0.40;;
35304;SDS011;26433;48.034;-1.764;2022-07-23T08:35:34;1.05;;;0.40;;
35304;SDS011;26433;48.034;-1.764;2022-07-23T08:40:39;0.50;;;0.50;;
35304;SDS011;26433;48.034;-1.764;2022-07-23T08:45:46;1.40;;;0.62;;
35304;SDS011;26433;48.034;-1.764;2022-07-23T08:50:52;0.30;;;0.30;;
35304;SDS011;26433;48.034;-1.764;2022-07-23T08:56:00;0.50;;;0.50;;
35304;SDS011;26433;48.034;-1.764;2022-07-23T09:01:06;0.55;;;0.50;;
35304;SDS011;26433;48.034;-1.764;2022-07-23T09:06:10;0.50;;;0.40;;
35304;SDS011;26433;48.034;-1.764;2022-07-23T09:11:15;1.57;;;0.73;;
35304;SDS011;26433;48.034;-1.764;2022-07-23T09:16:23;0.45;;;0.40;;
35304;SDS011;26433;48.034;-1.764;2022-07-23T09:21:28;2.30;;;0.50;;
35304;SDS011;26433;48.034;-1.764;2022-07-23T09:26:33;1.73;;;0.40;;
35304;SDS011;26433;48.034;-1.764;2022-07-23T09:31:47;4.47;;;0.68;;
35304;SDS011;26433;48.034;-1.764;2022-07-23T09:36:52;0.50;;;0.50;;
35304;SDS011;26433;48.034;-1.764;2022-07-23T09:41:58;0.55;;;0.50;;
35304;SDS011;26433;48.034;-1.764;2022-07-23T09:47:16;0.40;;;0.40;;
35304;SDS011;26433;48.034;-1.764;2022-07-23T09:52:25;0.30;;;0.30;;
35304;SDS011;26433;48.034;-1.764;2022-07-23T09:57:36;2.20;;;0.57;;
35304;SDS011;26433;48.034;-1.764;2022-07-23T10:02:42;0.95;;;0.37;;
35304;SDS011;26433;48.034;-1.764;2022-07-23T10:07:56;0.80;;;0.50;;
35304;SDS011;26433;48.034;-1.764;2022-07-23T10:13:08;1.25;;;0.30;;
35304;SDS011;26433;48.034;-1.764;2022-07-23T10:18:40;0.40;;;0.28;;
35304;SDS011;26433;48.034;-1.764;2022-07-23T10:23:47;0.40;;;0.30;;
35304;SDS011;26433;48.034;-1.764;2022-07-23T10:29:11;3.40;;;0.40;;
35304;SDS011;26433;48.034;-1.764;2022-07-23T10:34:25;0.40;;;0.40;;
35304;SDS011;26433;48.034;-1.764;2022-07-23T10:39:38;0.60;;;0.30;;
35304;SDS011;26433;48.034;-1.764;2022-07-23T10:49:47;3.95;;;0.45;;
35304;SDS011;26433;48.034;-1.764;2022-07-23T10:54:52;1.10;;;0.50;;
35304;SDS011;26433;48.034;-1.764;2022-07-23T11:00:19;0.50;;;0.50;;
35304;SDS011;26433;48.034;-1.764;2022-07-23T11:05:26;0.30;;;0.30;;
35304;SDS011;26433;48.034;-1.764;2022-07-23T11:10:45;1.05;;;0.47;;
35304;SDS011;26433;48.034;-1.764;2022-07-23T11:16:03;1.95;;;0.30;;
35304;SDS011;26433;48.034;-1.764;2022-07-23T11:26:47;0.30;;;0.30;;
35304;SDS011;26433;48.034;-1.764;2022-07-23T11:32:03;0.20;;;0.20;;
35304;SDS011;26433;48.034;-1.764;2022-07-23T11:37:10;0.65;;;0.40;;
35304;SDS011;26433;48.034;-1.764;2022-07-23T11:42:17;0.45;;;0.40;;
35304;SDS011;26433;48.034;-1.764;2022-07-23T11:47:22;0.82;;;0.40;;
35304;SDS011;26433;48.034;-1.764;2022-07-23T11:52:27;0.82;;;0.77;;
35304;SDS011;26433;48.034;-1.764;2022-07-23T11:57:35;0.40;;;0.40;;
35304;SDS011;26433;48.034;-1.764;2022-07-23T12:02:40;0.40;;;0.40;;
35304;SDS011;26433;48.034;-1.764;2022-07-23T12:07:45;0.40;;;0.30;;
35304;SDS011;26433;48.034;-1.764;2022-07-23T12:12:53;0.40;;;0.30;;
35304;SDS011;26433;48.034;-1.764;2022-07-23T12:17:59;0.30;;;0.30;;
35304;SDS011;26433;48.034;-1.764;2022-07-23T12:23:05;0.62;;;0.57;;
35304;SDS011;26433;48.034;-1.764;2022-07-23T12:28:12;0.25;;;0.25;;
35304;SDS011;26433;48.034;-1.764;2022-07-23T12:33:21;0.45;;;0.37;;
35304;SDS011;26433;48.034;-1.764;2022-07-23T12:38:27;0.28;;;0.22;;
35304;SDS011;26433;48.034;-1.764;2022-07-23T12:43:40;2.83;;;0.40;;
35304;SDS011;26433;48.034;-1.764;2022-07-23T12:48:50;0.30;;;0.28;;
35304;SDS011;26433;48.034;-1.764;2022-07-23T12:53:55;0.22;;;0.20;;
35304;SDS011;26433;48.034;-1.764;2022-07-23T12:59:06;0.60;;;0.40;;
35304;SDS011;26433;48.034;-1.764;2022-07-23T13:04:13;0.30;;;0.20;;
35304;SDS011;26433;48.034;-1.764;2022-07-23T13:09:20;0.45;;;0.30;;
35304;SDS011;26433;48.034;-1.764;2022-07-23T13:14:27;0.30;;;0.30;;
35304;SDS011;26433;48.034;-1.764;2022-07-23T13:19:32;0.20;;;0.20;;
35304;SDS011;26433;48.034;-1.764;2022-07-23T13:24:36;0.30;;;0.30;;
35304;SDS011;26433;48.034;-1.764;2022-07-23T13:29:42;0.32;;;0.30;;
35304;SDS011;26433;48.034;-1.764;2022-07-23T13:34:46;0.20;;;0.20;;
35304;SDS011;26433;48.034;-1.764;2022-07-23T13:40:10;0.50;;;0.50;;
35304;SDS011;26433;48.034;-1.764;2022-07-23T13:45:20;0.10;;;0.10;;
35304;SDS011;26433;48.034;-1.764;2022-07-23T13:50:31;0.20;;;0.20;;
35304;SDS011;26433;48.034;-1.764;2022-07-23T13:55:35;0.20;;;0.20;;
35304;SDS011;26433;48.034;-1.764;2022-07-23T14:00:42;0.30;;;0.30;;
35304;SDS011;26433;48.034;-1.764;2022-07-23T14:05:55;0.17;;;0.17;;
35304;SDS011;26433;48.034;-1.764;2022-07-23T14:10:59;0.40;;;0.40;;
35304;SDS011;26433;48.034;-1.764;2022-07-23T14:16:09;0.20;;;0.20;;
35304;SDS011;26433;48.034;-1.764;2022-07-23T14:21:13;0.20;;;0.20;;
35304;SDS011;26433;48.034;-1.764;2022-07-23T14:26:18;0.40;;;0.35;;
35304;SDS011;26433;48.034;-1.764;2022-07-23T14:31:23;0.22;;;0.22;;
35304;SDS011;26433;48.034;-1.764;2022-07-23T14:36:27;0.43;;;0.40;;
35304;SDS011;26433;48.034;-1.764;2022-07-23T14:46:35;0.30;;;0.23;;
35304;SDS011;26433;48.034;-1.764;2022-07-23T14:51:39;0.22;;;0.22;;
35304;SDS011;26433;48.034;-1.764;2022-07-23T14:56:44;0.50;;;0.45;;
35304;SDS011;26433;48.034;-1.764;2022-07-23T15:01:49;0.82;;;0.32;;
35304;SDS011;26433;48.034;-1.764;2022-07-23T15:06:54;0.45;;;0.30;;
35304;SDS011;26433;48.034;-1.764;2022-07-23T15:11:58;0.82;;;0.40;;
35304;SDS011;26433;48.034;-1.764;2022-07-23T15:17:05;0.40;;;0.25;;
35304;SDS011;26433;48.034;-1.764;2022-07-23T15:22:08;1.27;;;0.20;;
35304;SDS011;26433;48.034;-1.764;2022-07-23T15:27:12;0.30;;;0.30;;
35304;SDS011;26433;48.034;-1.764;2022-07-23T15:32:17;0.10;;;0.10;;
35304;SDS011;26433;48.034;-1.764;2022-07-23T15:37:22;0.82;;;0.40;;
35304;SDS011;26433;48.034;-1.764;2022-07-23T15:47:31;0.32;;;0.32;;
35304;SDS011;26433;48.034;-1.764;2022-07-23T15:52:35;0.20;;;0.20;;
35304;SDS011;26433;48.034;-1.764;2022-07-23T15:57:39;0.20;;;0.20;;
35304;SDS011;26433;48.034;-1.764;2022-07-23T16:02:44;0.17;;;0.17;;
35304;SDS011;26433;48.034;-1.764;2022-07-23T16:07:48;2.08;;;0.30;;
35304;SDS011;26433;48.034;-1.764;2022-07-23T16:12:52;0.30;;;0.20;;
35304;SDS011;26433;48.034;-1.764;2022-07-23T16:17:57;1.17;;;0.30;;
35304;SDS011;26433;48.034;-1.764;2022-07-23T16:23:01;0.40;;;0.30;;
35304;SDS011;26433;48.034;-1.764;2022-07-23T16:28:06;0.52;;;0.30;;
35304;SDS011;26433;48.034;-1.764;2022-07-23T16:33:11;8.20;;;0.50;;
35304;SDS011;26433;48.034;-1.764;2022-07-23T16:38:15;0.30;;;0.30;;
35304;SDS011;26433;48.034;-1.764;2022-07-23T16:43:19;0.20;;;0.20;;
35304;SDS011;26433;48.034;-1.764;2022-07-23T16:48:24;0.40;;;0.20;;
35304;SDS011;26433;48.034;-1.764;2022-07-23T16:53:27;0.60;;;0.40;;
35304;SDS011;26433;48.034;-1.764;2022-07-23T16:58:32;0.30;;;0.28;;
35304;SDS011;26433;48.034;-1.764;2022-07-23T17:03:37;0.57;;;0.40;;
35304;SDS011;26433;48.034;-1.764;2022-07-23T17:08:41;0.32;;;0.32;;
35304;SDS011;26433;48.034;-1.764;2022-07-23T17:13:45;0.62;;;0.30;;
35304;SDS011;26433;48.034;-1.764;2022-07-23T17:18:50;0.25;;;0.25;;
35304;SDS011;26433;48.034;-1.764;2022-07-23T17:23:54;0.30;;;0.30;;
35304;SDS011;26433;48.034;-1.764;2022-07-23T17:28:57;0.20;;;0.20;;
35304;SDS011;26433;48.034;-1.764;2022-07-23T17:34:03;0.25;;;0.25;;
35304;SDS011;26433;48.034;-1.764;2022-07-23T17:39:07;0.90;;;0.37;;
35304;SDS011;26433;48.034;-1.764;2022-07-23T17:49:16;0.50;;;0.30;;
35304;SDS011;26433;48.034;-1.764;2022-07-23T17:54:20;0.20;;;0.20;;
35304;SDS011;26433;48.034;-1.764;2022-07-23T17:59:25;0.47;;;0.30;;
35304;SDS011;26433;48.034;-1.764;2022-07-23T18:04:30;0.45;;;0.40;;
35304;SDS011;26433;48.034;-1.764;2022-07-23T18:09:34;0.40;;;0.40;;
35304;SDS011;26433;48.034;-1.764;2022-07-23T18:14:38;3.20;;;0.50;;
35304;SDS011;26433;48.034;-1.764;2022-07-23T18:19:43;0.57;;;0.47;;
35304;SDS011;26433;48.034;-1.764;2022-07-23T18:24:47;0.52;;;0.32;;
35304;SDS011;26433;48.034;-1.764;2022-07-23T18:29:50;0.43;;;0.35;;
35304;SDS011;26433;48.034;-1.764;2022-07-23T18:34:56;2.22;;;0.37;;
35304;SDS011;26433;48.034;-1.764;2022-07-23T18:40:00;4.03;;;0.40;;
35304;SDS011;26433;48.034;-1.764;2022-07-23T18:45:05;0.32;;;0.30;;
35304;SDS011;26433;48.034;-1.764;2022-07-23T18:50:12;0.65;;;0.30;;
35304;SDS011;26433;48.034;-1.764;2022-07-23T18:55:15;0.20;;;0.20;;
35304;SDS011;26433;48.034;-1.764;2022-07-23T19:00:19;0.73;;;0.65;;
35304;SDS011;26433;48.034;-1.764;2022-07-23T19:05:24;0.20;;;0.20;;
35304;SDS011;26433;48.034;-1.764;2022-07-23T19:10:29;0.40;;;0.30;;
35304;SDS011;26433;48.034;-1.764;2022-07-23T19:15:33;0.50;;;0.50;;
35304;SDS011;26433;48.034;-1.764;2022-07-23T19:20:38;0.50;;;0.40;;
35304;SDS011;26433;48.034;-1.764;2022-07-23T19:25:45;0.60;;;0.35;;
35304;SDS011;26433;48.034;-1.764;2022-07-23T19:30:49;2.80;;;0.30;;
35304;SDS011;26433;48.034;-1.764;2022-07-23T19:35:54;0.37;;;0.33;;
35304;SDS011;26433;48.034;-1.764;2022-07-23T19:40:57;1.40;;;0.20;;
35304;SDS011;26433;48.034;-1.764;2022-07-23T19:46:01;0.20;;;0.20;;
35304;SDS011;26433;48.034;-1.764;2022-07-23T19:51:08;1.35;;;0.47;;
35304;SDS011;26433;48.034;-1.764;2022-07-23T19:56:12;0.30;;;0.20;;
35304;SDS011;26433;48.034;-1.764;2022-07-23T20:01:16;0.28;;;0.20;;
35304;SDS011;26433;48.034;-1.764;2022-07-23T20:06:21;4.85;;;0.20;;
35304;SDS011;26433;48.034;-1.764;2022-07-23T20:11:25;0.55;;;0.40;;
35304;SDS011;26433;48.034;-1.764;2022-07-23T20:16:31;0.62;;;0.32;;
35304;SDS011;26433;48.034;-1.764;2022-07-23T20:21:36;0.20;;;0.20;;
35304;SDS011;26433;48.034;-1.764;2022-07-23T20:26:46;0.85;;;0.37;;
35304;SDS011;26433;48.034;-1.764;2022-07-23T20:31:50;2.47;;;0.30;;
35304;SDS011;26433;48.034;-1.764;2022-07-23T20:36:55;0.37;;;0.30;;
35304;SDS011;26433;48.034;-1.764;2022-07-23T20:41:59;0.20;;;0.20;;
35304;SDS011;26433;48.034;-1.764;2022-07-23T20:47:03;0.30;;;0.30;;
35304;SDS011;26433;48.034;-1.764;2022-07-23T20:52:08;0.62;;;0.43;;
35304;SDS011;26433;48.034;-1.764;2022-07-23T20:57:12;2.28;;;0.40;;
35304;SDS011;26433;48.034;-1.764;2022-07-23T21:02:16;2.62;;;0.30;;
35304;SDS011;26433;48.034;-1.764;2022-07-23T21:07:22;0.65;;;0.40;;
35304;SDS011;26433;48.034;-1.764;2022-07-23T21:12:26;0.30;;;0.30;;
35304;SDS011;26433;48.034;-1.764;2022-07-23T21:17:30;0.40;;;0.40;;
35304;SDS011;26433;48.034;-1.764;2022-07-23T21:22:35;0.77;;;0.37;;
35304;SDS011;26433;48.034;-1.764;2022-07-23T21:27:38;0.68;;;0.30;;
35304;SDS011;26433;48.034;-1.764;2022-07-23T21:32:42;0.45;;;0.30;;
35304;SDS011;26433;48.034;-1.764;2022-07-23T21:37:47;0.40;;;0.37;;
35304;SDS011;26433;48.034;-1.764;2022-07-23T21:42:51;1.75;;;0.37;;
35304;SDS011;26433;48.034;-1.764;2022-07-23T21:47:55;0.32;;;0.32;;
35304;SDS011;26433;48.034;-1.764;2022-07-23T21:53:00;4.93;;;0.40;;
35304;SDS011;26433;48.034;-1.764;2022-07-23T21:58:04;0.68;;;0.20;;
35304;SDS011;26433;48.034;-1.764;2022-07-23T22:03:07;0.40;;;0.40;;
35304;SDS011;26433;48.034;-1.764;2022-07-23T22:08:14;0.40;;;0.40;;
35304;SDS011;26433;48.034;-1.764;2022-07-23T22:13:18;2.60;;;0.35;;
35304;SDS011;26433;48.034;-1.764;2022-07-23T22:18:21;0.43;;;0.40;;
35304;SDS011;26433;48.034;-1.764;2022-07-23T22:23:26;0.45;;;0.30;;
35304;SDS011;26433;48.034;-1.764;2022-07-23T22:28:30;0.30;;;0.30;;
35304;SDS011;26433;48.034;-1.764;2022-07-23T22:33:33;0.40;;;0.40;;
35304;SDS011;26433;48.034;-1.764;2022-07-23T22:38:38;0.50;;;0.37;;
35304;SDS011;26433;48.034;-1.764;2022-07-23T22:43:42;0.57;;;0.32;;
35304;SDS011;26433;48.034;-1.764;2022-07-23T22:48:46;0.70;;;0.33;;
35304;SDS011;26433;48.034;-1.764;2022-07-23T22:53:51;0.47;;;0.30;;
35304;SDS011;26433;48.034;-1.764;2022-07-23T22:58:54;0.40;;;0.22;;
35304;SDS011;26433;48.034;-1.764;2022-07-23T23:04:18;0.50;;;0.40;;
35304;SDS011;26433;48.034;-1.764;2022-07-23T23:09:23;0.40;;;0.20;;
35304;SDS011;26433;48.034;-1.764;2022-07-23T23:14:27;0.30;;;0.30;;
35304;SDS011;26433;48.034;-1.764;2022-07-23T23:19:31;0.43;;;0.30;;
35304;SDS011;26433;48.034;-1.764;2022-07-23T23:24:36;0.60;;;0.40;;
35304;SDS011;26433;48.034;-1.764;2022-07-23T23:29:39;0.55;;;0.40;;
35304;SDS011;26433;48.034;-1.764;2022-07-23T23:34:49;0.62;;;0.30;;
35304;SDS011;26433;48.034;-1.764;2022-07-23T23:39:54;0.30;;;0.30;;
35304;SDS011;26433;48.034;-1.764;2022-07-23T23:44:58;0.32;;;0.30;;
35304;SDS011;26433;48.034;-1.764;2022-07-23T23:50:02;0.30;;;0.30;;
35304;SDS011;26433;48.034;-1.764;2022-07-23T23:55:08;0.52;;;0.30;;
